Cape Peony — 3FDX6 — position and weather

sailwx.info

Track history (hours):
 
Tides and Currents Weather Stations Pressure Air Temp Water Temp Dewpoint Dewpoint Depression Visibility Wind Speed Wind Dir Waves Ship Positions

Cape Peony

Last reported at 2015-May-24 06:17 UTC. Time now 2015-May-24 09:14 UTC.
Position N 46°30' E 030°57'.

Length 292 m; draft 11.1 m.

Type: Ship. MMSI: 373590000.

Date/timePositionNaut miles runAvg speedWind from/ knotsBaromVisibWave heightAir tempDewpointWater temp
2015-May-24 06:17N 46°30' E 030°57'0 0.4
2015-May-24 05:33N 46°30' E 030°57'5 3.5
2015-May-24 04:14N 46°25' E 030°57'4 4.7
2015-May-24 03:23N 46°21' E 030°57'23 7.8
2015-May-24 00:29N 45°60' E 031°09'10 9.7
2015-May-23 23:29N 45°51' E 031°03'13 9.5
2015-May-23 22:06N 45°39' E 030°56'5 9.7
2015-May-23 21:32N 45°34' E 030°53'260 9.0
2015-May-22 16:33N 41°24' E 029°15'  
2015-May-19 21:30N 37°48' E 025°45'1314.0
2015-May-19 20:33N 37°36' E 025°51'1413.7
2015-May-19 19:33N 37°24' E 025°60'2813.6
2015-May-19 17:32N 37°07' E 026°27'1613.4
2015-May-19 16:20N 36°54' E 026°39'1514.0
2015-May-19 15:17N 36°40' E 026°45'1114.1
2015-May-19 14:30N 36°30' E 026°50'1112.1
2015-May-19 13:33N 36°21' E 026°58'1211.7
2015-May-19 12:33N 36°11' E 027°07'1211.9
2015-May-19 11:33N 36°02' E 027°17'3411.4
2015-May-19 08:33N 35°38' E 027°47'3711.0
2015-May-19 05:12N 35°17' E 028°24'1110.7
2015-May-19 04:09N 35°11' E 028°35'11111.1
2015-May-18 18:09N 34°07' E 030°26'810.9
2015-May-18 17:23N 34°02' E 030°35'1210.6
2015-May-18 16:16N 33°55' E 030°46'810.5
2015-May-18 15:33N 33°51' E 030°54'4310.8
2015-May-18 11:33N 33°26' E 031°36'8311.2
2015-May-18 04:08N 32°39' E 032°57'611.3
2015-May-18 03:33N 32°35' E 033°04'1111.1
2015-May-18 02:33N 32°29' E 033°14'1111.2
2015-May-18 01:33N 32°22' E 033°25'1111.2
2015-May-18 00:33N 32°16' E 033°36'1111.1
2015-May-17 23:33N 32°10' E 033°47'1111.4
2015-May-17 22:33N 32°05' E 033°59'1111.2
2015-May-17 21:33N 32°00' E 034°11'1110.9
2015-May-17 20:33N 31°56' E 034°23'9 9.0
2015-May-17 19:33N 31°48' E 034°27'7 7.5
2015-May-17 18:33N 31°40' E 034°28'2 1.7
2015-May-17 17:33N 31°39' E 034°29'1 1.0
2015-May-17 16:28N 31°38' E 034°30'0 0.0
2015-May-17 15:31N 31°38' E 034°30'0 0.0
2015-May-17 14:31N 31°38' E 034°30'0 0.0
2015-May-17 13:31N 31°38' E 034°30'0 0.0
2015-May-17 10:19N 31°38' E 034°30'0 0.0
2015-May-17 07:13N 31°38' E 034°30'0 0.0
2015-May-17 06:28N 31°38' E 034°30'0 0.0
2015-May-17 05:13N 31°38' E 034°30'0 0.0
2015-May-17 00:27N 31°38' E 034°30'0 0.0
2015-May-16 21:04N 31°38' E 034°30'0 0.0
2015-May-16 20:22N 31°38' E 034°30'0 0.0
2015-May-16 07:24N 31°38' E 034°30'0 0.0
2015-May-16 05:06N 31°38' E 034°30'0 0.0
2015-May-16 04:12N 31°38' E 034°30'0 0.0
2015-May-16 02:25N 31°38' E 034°30'0 0.0
2015-May-16 01:31N 31°38' E 034°30'0 0.0
2015-May-16 00:22N 31°38' E 034°30'0 0.0
2015-May-15 23:22N 31°38' E 034°30'0 0.0
2015-May-15 21:33N 31°38' E 034°30'0 0.0
2015-May-15 20:33N 31°38' E 034°30'0 0.0
2015-May-15 19:25N 31°38' E 034°30'0 0.0
2015-May-15 18:22N 31°38' E 034°30'  
Track history (hours):
 
Tides and Currents Weather Stations Pressure Air Temp Water Temp Dewpoint Dewpoint Depression Visibility Wind Speed Wind Dir Waves Ship Positions

Cape Peony

Last reported at 2015-May-24 06:17 UTC. Time now 2015-May-24 09:14 UTC.
Position N 46°30' E 030°57'.

Length 292 m; draft 11.1 m.

Type: Ship. MMSI: 373590000.

Date/timePositionNaut miles runAvg speedWind from/ knotsBaromVisibWave heightAir tempDewpointWater temp
2015-May-24 06:17N 46°30' E 030°57'0 0.4
2015-May-24 05:33N 46°30' E 030°57'5 3.5
2015-May-24 04:14N 46°25' E 030°57'4 4.7
2015-May-24 03:23N 46°21' E 030°57'23 7.8
2015-May-24 00:29N 45°60' E 031°09'10 9.7
2015-May-23 23:29N 45°51' E 031°03'13 9.5
2015-May-23 22:06N 45°39' E 030°56'5 9.7
2015-May-23 21:32N 45°34' E 030°53'260 9.0
2015-May-22 16:33N 41°24' E 029°15'  
2015-May-19 21:30N 37°48' E 025°45'1314.0
2015-May-19 20:33N 37°36' E 025°51'1413.7
2015-May-19 19:33N 37°24' E 025°60'2813.6
2015-May-19 17:32N 37°07' E 026°27'1613.4
2015-May-19 16:20N 36°54' E 026°39'1514.0
2015-May-19 15:17N 36°40' E 026°45'1114.1
2015-May-19 14:30N 36°30' E 026°50'1112.1
2015-May-19 13:33N 36°21' E 026°58'1211.7
2015-May-19 12:33N 36°11' E 027°07'1211.9
2015-May-19 11:33N 36°02' E 027°17'3411.4
2015-May-19 08:33N 35°38' E 027°47'3711.0
2015-May-19 05:12N 35°17' E 028°24'1110.7
2015-May-19 04:09N 35°11' E 028°35'11111.1
2015-May-18 18:09N 34°07' E 030°26'810.9
2015-May-18 17:23N 34°02' E 030°35'1210.6
2015-May-18 16:16N 33°55' E 030°46'810.5
2015-May-18 15:33N 33°51' E 030°54'4310.8
2015-May-18 11:33N 33°26' E 031°36'8311.2
2015-May-18 04:08N 32°39' E 032°57'611.3
2015-May-18 03:33N 32°35' E 033°04'1111.1
2015-May-18 02:33N 32°29' E 033°14'1111.2
2015-May-18 01:33N 32°22' E 033°25'1111.2
2015-May-18 00:33N 32°16' E 033°36'1111.1
2015-May-17 23:33N 32°10' E 033°47'1111.4
2015-May-17 22:33N 32°05' E 033°59'1111.2
2015-May-17 21:33N 32°00' E 034°11'1110.9
2015-May-17 20:33N 31°56' E 034°23'9 9.0
2015-May-17 19:33N 31°48' E 034°27'7 7.5
2015-May-17 18:33N 31°40' E 034°28'2 1.7
2015-May-17 17:33N 31°39' E 034°29'1 1.0
2015-May-17 16:28N 31°38' E 034°30'0 0.0
2015-May-17 15:31N 31°38' E 034°30'0 0.0
2015-May-17 14:31N 31°38' E 034°30'0 0.0
2015-May-17 13:31N 31°38' E 034°30'0 0.0
2015-May-17 10:19N 31°38' E 034°30'0 0.0
2015-May-17 07:13N 31°38' E 034°30'0 0.0
2015-May-17 06:28N 31°38' E 034°30'0 0.0
2015-May-17 05:13N 31°38' E 034°30'0 0.0
2015-May-17 00:27N 31°38' E 034°30'0 0.0
2015-May-16 21:04N 31°38' E 034°30'0 0.0
2015-May-16 20:22N 31°38' E 034°30'0 0.0
2015-May-16 07:24N 31°38' E 034°30'0 0.0
2015-May-16 05:06N 31°38' E 034°30'0 0.0
2015-May-16 04:12N 31°38' E 034°30'0 0.0
2015-May-16 02:25N 31°38' E 034°30'0 0.0
2015-May-16 01:31N 31°38' E 034°30'0 0.0
2015-May-16 00:22N 31°38' E 034°30'0 0.0
2015-May-15 23:22N 31°38' E 034°30'0 0.0
2015-May-15 21:33N 31°38' E 034°30'0 0.0
2015-May-15 20:33N 31°38' E 034°30'0 0.0
2015-May-15 19:25N 31°38' E 034°30'0 0.0
2015-May-15 18:22N 31°38' E 034°30'  

Dump ship's entire track history